Time;durP1;ratioP1;P1;durP2;ratioP2;P2;SDS_P1;SDS_P2;PMS_P1;PMS_P2;Temp;Humidity;BMP_temperature;BMP_pressure;BME280_temperature;BME280_humidity;BME280_pressure;Samples;Min_cycle;Max_cycle;Signal;HPM_P1;HPM_P2
2023/08/04 00:00:31;;;;;;;13.18;7.15;;;15.80;99.90;;;;;;5053427;28;20193;-77
2023/08/04 00:03:02;;;;;;;14.20;6.60;;;15.90;99.90;;;;;;5058463;28;20243;-77
2023/08/04 00:05:33;;;;;;;14.27;8.48;;;16.00;99.90;;;;;;5063661;28;20220;-78
2023/08/04 00:08:04;;;;;;;16.55;6.60;;;16.10;99.90;;;;;;5068964;28;20283;-77
2023/08/04 00:10:36;;;;;;;15.45;7.22;;;16.20;99.90;;;;;;5070572;28;20203;-77
2023/08/04 00:13:07;;;;;;;12.20;6.93;;;16.40;99.90;;;;;;5063322;28;20215;-76
2023/08/04 00:15:38;;;;;;;11.93;5.78;;;16.50;99.90;;;;;;5060943;28;20186;-78
2023/08/04 00:18:08;;;;;;;14.80;6.03;;;16.60;99.90;;;;;;5067439;28;20197;-78
2023/08/04 00:20:39;;;;;;;13.75;5.95;;;16.80;99.90;;;;;;5055425;28;20223;-78
2023/08/04 00:23:10;;;;;;;13.00;5.65;;;16.90;99.90;;;;;;5058572;28;20276;-77
2023/08/04 00:25:43;;;;;;;13.40;6.53;;;17.00;99.90;;;;;;5055686;28;20196;-77
2023/08/04 00:28:13;;;;;;;11.02;4.95;;;17.00;99.90;;;;;;5050812;28;20196;-78
2023/08/04 00:30:44;;;;;;;11.43;5.53;;;17.10;99.90;;;;;;5068042;28;20193;-77
2023/08/04 00:33:15;;;;;;;6.78;4.95;;;17.20;99.90;;;;;;5062100;28;20692;-77
2023/08/04 00:35:46;;;;;;;10.32;5.00;;;17.30;99.90;;;;;;5059349;28;20684;-79
2023/08/04 00:38:16;;;;;;;12.90;5.03;;;17.40;99.90;;;;;;5061298;28;20204;-79
2023/08/04 00:40:49;;;;;;;8.90;4.75;;;17.40;99.90;;;;;;5055251;28;20241;-78
2023/08/04 00:43:20;;;;;;;12.23;4.47;;;17.50;99.90;;;;;;5058899;28;20200;-79
2023/08/04 00:45:50;;;;;;;11.55;4.47;;;17.60;99.90;;;;;;5056786;28;20189;-78
2023/08/04 00:48:21;;;;;;;10.27;4.38;;;17.70;99.90;;;;;;5057837;28;20193;-79
2023/08/04 00:50:52;;;;;;;6.03;3.83;;;17.80;99.90;;;;;;5052683;28;20221;-78
2023/08/04 00:53:23;;;;;;;7.82;3.92;;;18.00;99.90;;;;;;5053380;28;20223;-80
2023/08/04 00:55:56;;;;;;;8.48;4.40;;;18.10;99.90;;;;;;5055955;28;20205;-77
2023/08/04 00:58:27;;;;;;;5.95;3.65;;;18.30;99.90;;;;;;5058542;28;20186;-77
2023/08/04 01:00:57;;;;;;;7.93;4.05;;;18.40;99.90;;;;;;5056504;28;20198;-78
2023/08/04 01:03:29;;;;;;;8.65;3.92;;;18.60;99.90;;;;;;5056233;28;20233;-77
2023/08/04 01:06:03;;;;;;;5.93;3.88;;;18.60;99.90;;;;;;5056595;28;20201;-79
2023/08/04 01:08:37;;;;;;;8.23;4.03;;;18.70;99.90;;;;;;5056664;28;20262;-78
2023/08/04 01:11:14;;;;;;;7.93;4.28;;;18.80;99.90;;;;;;5056616;28;20207;-77
2023/08/04 01:13:47;;;;;;;8.35;3.70;;;18.90;99.90;;;;;;5056544;28;20213;-79
2023/08/04 01:16:18;;;;;;;10.80;3.83;;;19.10;99.90;;;;;;5056334;28;20196;-80
2023/08/04 01:18:49;;;;;;;8.35;4.00;;;19.20;99.90;;;;;;5056319;28;20566;-78
2023/08/04 01:21:21;;;;;;;8.95;3.72;;;19.30;99.90;;;;;;5056239;28;20221;-79
2023/08/04 01:23:52;;;;;;;8.98;3.90;;;19.50;99.90;;;;;;5056090;28;20194;-80
2023/08/04 01:26:24;;;;;;;5.80;3.72;;;19.60;99.90;;;;;;5056142;28;20200;-78
2023/08/04 01:28:55;;;;;;;10.98;4.18;;;19.70;99.90;;;;;;5055906;28;20560;-79
2023/08/04 01:31:27;;;;;;;7.60;3.75;;;19.70;99.90;;;;;;5056158;28;20200;-79
2023/08/04 01:33:58;;;;;;;6.57;3.65;;;19.70;99.90;;;;;;5055980;28;20213;-78
2023/08/04 01:36:31;;;;;;;6.65;3.80;;;19.80;99.90;;;;;;5055968;28;20646;-78
2023/08/04 01:39:02;;;;;;;7.88;3.60;;;19.80;99.90;;;;;;5056370;28;20186;-80
2023/08/04 01:41:33;;;;;;;6.65;3.40;;;19.90;99.90;;;;;;5056097;28;20206;-79
2023/08/04 01:44:03;;;;;;;7.38;3.17;;;20.10;99.90;;;;;;5055806;28;20208;-80
2023/08/04 01:46:34;;;;;;;6.22;3.67;;;20.20;99.90;;;;;;5055966;28;20574;-79
2023/08/04 01:49:05;;;;;;;6.07;3.67;;;20.30;99.90;;;;;;5055802;28;20196;-78
2023/08/04 01:51:38;;;;;;;7.95;3.30;;;20.40;99.90;;;;;;5056110;28;20200;-79
2023/08/04 01:54:08;;;;;;;6.00;2.97;;;20.50;99.90;;;;;;5055476;28;20629;-78
2023/08/04 01:56:39;;;;;;;7.50;3.30;;;20.50;99.90;;;;;;5055525;28;20633;-81
2023/08/04 01:59:10;;;;;;;6.05;2.72;;;20.60;99.90;;;;;;5055761;28;20197;-80
2023/08/04 02:01:40;;;;;;;5.05;2.80;;;20.70;99.90;;;;;;5055402;28;20200;-79
2023/08/04 02:04:11;;;;;;;7.07;3.00;;;20.80;99.90;;;;;;5055334;28;20567;-78
2023/08/04 02:06:44;;;;;;;6.47;2.97;;;20.90;99.90;;;;;;5054707;28;20200;-79
2023/08/04 02:09:15;;;;;;;4.40;2.70;;;21.10;99.90;;;;;;5055518;28;20202;-77
2023/08/04 02:11:46;;;;;;;6.50;2.70;;;21.30;99.90;;;;;;5055386;28;20569;-79
2023/08/04 02:14:17;;;;;;;5.40;3.05;;;21.30;99.90;;;;;;5055439;28;20222;-79
2023/08/04 02:16:47;;;;;;;7.07;2.50;;;21.40;99.90;;;;;;5055533;28;20194;-78
2023/08/04 02:19:18;;;;;;;9.98;2.63;;;21.50;99.90;;;;;;5055256;28;20197;-80
2023/08/04 02:21:51;;;;;;;6.13;3.55;;;21.60;99.90;;;;;;5055140;28;20185;-79
2023/08/04 02:24:22;;;;;;;4.88;2.65;;;21.60;99.90;;;;;;5055042;28;20197;-80
2023/08/04 02:26:52;;;;;;;3.80;2.50;;;21.70;99.90;;;;;;5054962;28;20190;-82
2023/08/04 02:29:23;;;;;;;3.58;2.30;;;21.80;99.90;;;;;;5055194;28;20549;-81
2023/08/04 02:31:54;;;;;;;7.85;3.45;;;21.80;99.90;;;;;;5054970;28;20638;-81
2023/08/04 02:34:25;;;;;;;4.90;2.78;;;21.90;99.90;;;;;;5054979;28;20221;-80
2023/08/04 02:36:57;;;;;;;4.95;2.25;;;22.00;99.90;;;;;;5054803;28;20196;-81
2023/08/04 02:39:28;;;;;;;4.55;2.38;;;22.10;99.90;;;;;;5054546;28;20629;-81
2023/08/04 02:41:59;;;;;;;6.22;2.38;;;22.20;99.90;;;;;;5054889;28;20194;-82
2023/08/04 02:44:29;;;;;;;5.40;2.08;;;22.20;99.90;;;;;;5054907;28;20208;-81
2023/08/04 02:47:00;;;;;;;6.95;2.20;;;22.40;99.90;;;;;;5054945;28;20189;-81
2023/08/04 02:49:32;;;;;;;3.33;2.00;;;22.40;99.90;;;;;;5054837;28;20276;-81
2023/08/04 02:52:06;;;;;;;2.70;2.00;;;22.40;99.90;;;;;;5054801;28;20194;-82
2023/08/04 02:54:36;;;;;;;3.00;2.10;;;22.40;99.90;;;;;;5054434;28;20224;-82
2023/08/04 02:57:07;;;;;;;3.20;1.90;;;22.40;99.90;;;;;;5054548;28;20634;-82
2023/08/04 02:59:38;;;;;;;2.40;1.80;;;22.50;99.90;;;;;;5057060;28;20201;-85
2023/08/04 03:02:09;;;;;;;2.15;1.63;;;22.60;99.90;;;;;;5054031;28;20229;-82
2023/08/04 03:04:41;;;;;;;3.63;1.80;;;22.70;99.90;;;;;;5053835;28;20211;-81
2023/08/04 03:07:14;;;;;;;4.00;1.80;;;22.80;99.90;;;;;;5054664;28;20562;-79
2023/08/04 03:09:45;;;;;;;2.97;1.60;;;22.80;99.90;;;;;;5056593;28;20210;-83
2023/08/04 03:12:16;;;;;;;2.20;1.52;;;22.80;99.90;;;;;;5067997;28;20200;-83
2023/08/04 03:14:46;;;;;;;2.08;1.42;;;22.90;99.90;;;;;;5070778;28;20223;-81
2023/08/04 03:17:17;;;;;;;2.42;1.50;;;22.90;99.90;;;;;;5057572;28;20202;-82
2023/08/04 03:19:48;;;;;;;3.05;1.90;;;22.90;99.90;;;;;;5057489;28;20220;-79
2023/08/04 03:22:21;;;;;;;3.17;1.63;;;22.90;99.90;;;;;;5064407;28;20204;-82
2023/08/04 03:24:51;;;;;;;3.33;1.67;;;22.90;99.90;;;;;;5061461;28;20223;-82
2023/08/04 03:27:23;;;;;;;4.45;1.80;;;22.90;99.90;;;;;;5062002;28;20572;-83
2023/08/04 03:29:54;;;;;;;2.83;1.70;;;22.80;99.90;;;;;;5073948;28;20243;-83
2023/08/04 03:32:25;;;;;;;3.35;1.70;;;22.90;99.90;;;;;;5067055;28;20194;-79
2023/08/04 03:34:55;;;;;;;2.58;1.60;;;23.00;99.90;;;;;;5066350;28;20648;-81
2023/08/04 03:37:28;;;;;;;2.30;1.70;;;23.00;99.90;;;;;;5073396;28;20189;-82
2023/08/04 03:39:59;;;;;;;3.95;1.70;;;23.00;99.90;;;;;;5061896;28;20578;-81
2023/08/04 03:42:29;;;;;;;1.67;1.40;;;23.00;99.90;;;;;;5067842;28;20216;-82
2023/08/04 03:45:00;;;;;;;3.08;1.58;;;23.10;99.90;;;;;;5052782;28;20197;-81
2023/08/04 03:47:31;;;;;;;2.10;1.60;;;23.10;99.90;;;;;;5052800;28;20225;-77
2023/08/04 03:50:02;;;;;;;2.78;1.90;;;23.10;99.90;;;;;;5053464;28;20190;-81
2023/08/04 03:52:35;;;;;;;3.42;1.80;;;23.10;99.90;;;;;;5070999;28;20201;-81
2023/08/04 03:55:06;;;;;;;2.17;1.80;;;23.10;99.90;;;;;;5066245;28;20213;-84
2023/08/04 03:57:36;;;;;;;4.22;1.67;;;23.10;99.90;;;;;;5071767;28;20625;-82
2023/08/04 04:00:08;;;;;;;2.28;1.50;;;23.10;99.90;;;;;;5073541;28;20276;-84
2023/08/04 04:02:39;;;;;;;2.10;1.50;;;23.00;99.90;;;;;;5060107;28;20259;-82
2023/08/04 04:05:10;;;;;;;1.95;1.42;;;23.00;99.90;;;;;;5061717;28;20199;-77
2023/08/04 04:07:43;;;;;;;3.10;1.67;;;23.10;99.90;;;;;;5051106;28;20198;-82
2023/08/04 04:10:14;;;;;;;2.65;1.50;;;23.10;99.90;;;;;;5052709;28;20200;-85
2023/08/04 04:12:44;;;;;;;2.80;1.50;;;23.10;99.90;;;;;;5059185;28;20204;-82
2023/08/04 04:15:15;;;;;;;2.90;1.67;;;23.10;99.90;;;;;;5068905;28;20567;-83
2023/08/04 04:17:46;;;;;;;2.03;1.60;;;23.10;99.90;;;;;;5071691;28;20199;-84
2023/08/04 04:20:17;;;;;;;1.85;1.50;;;23.10;99.90;;;;;;5063413;28;20221;-84
2023/08/04 04:22:49;;;;;;;2.90;1.52;;;23.10;99.90;;;;;;5053244;28;20550;-85
2023/08/04 04:25:20;;;;;;;2.88;1.60;;;23.20;99.90;;;;;;5052993;28;20196;-85
2023/08/04 04:27:51;;;;;;;3.20;1.60;;;23.20;99.90;;;;;;5066174;28;20208;-82
2023/08/04 04:30:22;;;;;;;3.33;1.80;;;23.20;99.90;;;;;;5055093;28;20197;-77
2023/08/04 04:32:52;;;;;;;3.67;1.60;;;23.20;99.90;;;;;;5052802;28;20197;-85
2023/08/04 04:35:23;;;;;;;2.90;1.30;;;23.10;99.90;;;;;;5053010;28;20213;-84
2023/08/04 04:37:56;;;;;;;2.70;1.50;;;23.10;99.90;;;;;;5065752;28;20215;-83
2023/08/04 04:40:27;;;;;;;2.88;1.80;;;23.20;99.90;;;;;;5061032;28;20227;-83
2023/08/04 04:42:57;;;;;;;2.03;1.73;;;23.20;99.90;;;;;;5058127;28;20196;-83
2023/08/04 04:45:28;;;;;;;2.40;1.90;;;23.40;99.90;;;;;;5065670;28;20199;-83
2023/08/04 04:47:59;;;;;;;3.33;1.60;;;23.30;99.90;;;;;;5066947;28;20224;-82
2023/08/04 04:50:30;;;;;;;3.47;1.60;;;23.30;99.90;;;;;;5065756;28;20216;-85
2023/08/04 04:53:02;;;;;;;2.13;1.65;;;23.30;99.90;;;;;;5064331;28;20284;-86
2023/08/04 04:55:33;;;;;;;1.77;1.50;;;23.30;99.90;;;;;;5061547;28;20200;-87
2023/08/04 04:58:04;;;;;;;3.40;1.77;;;23.20;99.90;;;;;;5052208;28;20204;-85
2023/08/04 05:00:36;;;;;;;2.53;2.03;;;23.20;99.90;;;;;;5057279;28;20224;-85
2023/08/04 05:03:08;;;;;;;3.80;2.13;;;23.10;99.90;;;;;;5052505;28;20232;-85
2023/08/04 05:05:39;;;;;;;4.10;2.60;;;23.10;99.90;;;;;;5053716;28;20200;-86
2023/08/04 05:08:12;;;;;;;4.47;2.72;;;23.10;99.90;;;;;;5055379;28;20202;-83
2023/08/04 05:10:43;;;;;;;6.22;2.97;;;23.00;99.90;;;;;;5050331;28;20200;-78
2023/08/04 05:13:15;;;;;;;5.75;3.00;;;22.90;99.90;;;;;;5052071;28;20662;-83
2023/08/04 05:15:46;;;;;;;5.05;2.88;;;22.80;99.90;;;;;;5053986;28;20565;-85
2023/08/04 05:18:17;;;;;;;8.25;3.88;;;22.70;99.90;;;;;;5053064;28;20200;-85
2023/08/04 05:20:49;;;;;;;8.57;3.25;;;22.70;99.90;;;;;;5052350;28;20229;-83
2023/08/04 05:23:22;;;;;;;6.90;3.42;;;22.50;99.90;;;;;;5065623;28;20201;-88
2023/08/04 05:25:53;;;;;;;5.40;3.58;;;22.50;99.90;;;;;;5053255;28;20201;-82
2023/08/04 05:28:27;;;;;;;8.57;3.20;;;22.40;99.90;;;;;;5057330;28;20205;-82
2023/08/04 05:31:00;;;;;;;7.35;3.30;;;22.40;99.90;;;;;;5061782;28;20200;-84
2023/08/04 05:33:32;;;;;;;6.13;3.47;;;22.30;99.90;;;;;;5054884;28;20202;-83
2023/08/04 05:36:04;;;;;;;8.13;3.90;;;22.20;99.90;;;;;;5071199;28;20198;-81
2023/08/04 05:38:37;;;;;;;7.57;3.78;;;22.20;99.90;;;;;;5071245;28;20193;-77
2023/08/04 05:41:08;;;;;;;8.13;4.30;;;22.00;99.90;;;;;;5056011;28;20186;-77
2023/08/04 05:43:39;;;;;;;8.82;4.00;;;22.00;99.90;;;;;;5058533;28;20237;-83
2023/08/04 05:46:12;;;;;;;7.05;3.60;;;21.90;99.90;;;;;;5057962;28;20572;-76
2023/08/04 05:48:44;;;;;;;6.82;3.75;;;21.90;99.90;;;;;;5072852;28;20282;-78
2023/08/04 05:51:15;;;;;;;6.40;3.53;;;21.80;99.90;;;;;;5075913;28;20637;-76
2023/08/04 05:53:48;;;;;;;6.70;3.47;;;21.80;99.90;;;;;;5075776;28;20220;-76
2023/08/04 05:56:19;;;;;;;6.53;3.70;;;21.80;99.90;;;;;;5065454;28;20634;-77
2023/08/04 05:58:50;;;;;;;5.55;3.80;;;21.60;99.90;;;;;;5055546;28;20246;-76
2023/08/04 06:01:21;;;;;;;7.43;4.10;;;21.60;99.90;;;;;;5067789;28;20189;-75
2023/08/04 06:03:52;;;;;;;6.13;4.32;;;21.50;99.90;;;;;;5073606;28;20247;-77
2023/08/04 06:06:24;;;;;;;7.30;4.20;;;21.30;99.90;;;;;;5075643;28;20192;-78
2023/08/04 06:08:57;;;;;;;9.15;4.38;;;21.30;99.90;;;;;;5073458;28;20199;-77
2023/08/04 06:11:28;;;;;;;9.50;4.20;;;21.20;99.90;;;;;;5055529;28;20549;-77
2023/08/04 06:13:59;;;;;;;10.15;4.75;;;21.10;99.90;;;;;;5056379;28;20272;-76
2023/08/04 06:16:30;;;;;;;8.07;4.63;;;21.10;99.90;;;;;;5055764;28;20205;-78
2023/08/04 06:19:01;;;;;;;8.20;4.68;;;21.00;99.90;;;;;;5059601;28;20204;-77
2023/08/04 06:21:35;;;;;;;8.00;4.43;;;20.90;99.90;;;;;;5074536;28;20200;-76
2023/08/04 06:24:09;;;;;;;9.23;5.10;;;20.90;99.90;;;;;;5068990;28;20209;-75
2023/08/04 06:26:40;;;;;;;11.02;5.47;;;20.80;99.90;;;;;;5070153;28;20683;-76
2023/08/04 06:29:11;;;;;;;10.88;5.60;;;20.70;99.90;;;;;;5068384;28;20684;-76
2023/08/04 06:31:42;;;;;;;9.15;5.50;;;20.60;99.90;;;;;;5066989;28;20205;-77
2023/08/04 06:34:13;;;;;;;8.23;5.07;;;20.50;99.90;;;;;;5061269;28;20594;-76
2023/08/04 06:36:47;;;;;;;9.77;5.22;;;20.40;99.90;;;;;;5068393;28;20204;-76
2023/08/04 06:39:22;;;;;;;11.07;4.97;;;20.40;99.90;;;;;;5074665;28;20212;-76
2023/08/04 06:41:53;;;;;;;10.45;5.00;;;20.30;99.90;;;;;;5055471;28;20193;-76
2023/08/04 06:44:24;;;;;;;7.75;4.43;;;20.30;99.90;;;;;;5054737;28;20653;-76
2023/08/04 06:46:55;;;;;;;10.60;4.85;;;20.20;99.90;;;;;;5055558;28;20559;-76
2023/08/04 06:49:26;;;;;;;10.88;4.90;;;20.20;99.90;;;;;;5063553;28;20193;-76
2023/08/04 06:51:57;;;;;;;9.27;4.65;;;20.10;99.90;;;;;;5066944;28;20560;-76
2023/08/04 06:54:30;;;;;;;12.18;4.38;;;20.00;99.90;;;;;;5063086;28;20232;-78
2023/08/04 06:57:01;;;;;;;9.18;4.10;;;20.00;99.90;;;;;;5066155;28;20224;-78
2023/08/04 06:59:32;;;;;;;5.38;3.40;;;19.90;99.90;;;;;;5066312;28;20197;-78
2023/08/04 07:02:04;;;;;;;8.13;3.45;;;19.80;99.90;;;;;;5073132;28;20207;-78
2023/08/04 07:04:35;;;;;;;8.45;3.47;;;19.70;99.90;;;;;;5069481;28;20653;-78
2023/08/04 07:07:06;;;;;;;7.70;3.53;;;19.60;99.90;;;;;;5064642;28;20197;-78
2023/08/04 07:09:39;;;;;;;6.38;3.40;;;19.50;99.90;;;;;;5060394;28;20194;-78
2023/08/04 07:12:11;;;;;;;6.57;3.30;;;19.50;99.90;;;;;;5060490;28;20207;-80
2023/08/04 07:14:42;;;;;;;6.10;3.38;;;19.40;99.90;;;;;;5059496;28;20688;-76
2023/08/04 07:17:13;;;;;;;7.57;3.60;;;19.30;99.90;;;;;;5057750;28;20250;-77
2023/08/04 07:19:44;;;;;;;10.75;3.80;;;19.20;99.90;;;;;;5057838;28;20212;-76
2023/08/04 07:22:15;;;;;;;7.78;3.55;;;19.20;99.90;;;;;;5067508;28;20671;-77
2023/08/04 07:24:53;;;;;;;9.27;3.95;;;19.10;99.90;;;;;;5065355;28;20774;-78
2023/08/04 07:27:24;;;;;;;8.20;4.18;;;19.00;99.90;;;;;;5064359;28;20228;-76
2023/08/04 07:29:55;;;;;;;7.00;4.00;;;18.90;99.90;;;;;;5065003;28;20645;-76
2023/08/04 07:32:26;;;;;;;10.25;5.00;;;18.80;99.90;;;;;;5058408;28;20205;-77
2023/08/04 07:34:57;;;;;;;11.25;4.63;;;18.70;99.90;;;;;;5065500;28;20726;-77
2023/08/04 07:37:28;;;;;;;8.85;4.07;;;18.70;99.90;;;;;;5066817;28;20200;-77
2023/08/04 07:40:02;;;;;;;8.27;4.05;;;18.70;99.90;;;;;;5066500;28;20208;-76
2023/08/04 07:42:33;;;;;;;7.13;4.15;;;18.60;99.90;;;;;;5061007;28;20193;-77
2023/08/04 07:45:04;;;;;;;7.97;4.28;;;18.50;99.90;;;;;;5059432;28;20206;-78
2023/08/04 07:47:35;;;;;;;8.88;4.53;;;18.50;99.90;;;;;;5070791;28;20667;-77
2023/08/04 07:50:07;;;;;;;8.02;4.90;;;18.40;99.90;;;;;;5072180;28;20197;-76
2023/08/04 07:52:38;;;;;;;8.98;4.35;;;18.30;99.90;;;;;;5053310;28;20254;-76
2023/08/04 07:55:12;;;;;;;8.30;4.40;;;18.30;99.90;;;;;;5053024;28;20217;-76
2023/08/04 07:57:43;;;;;;;10.70;4.82;;;18.20;99.90;;;;;;5053719;28;20197;-77
2023/08/04 08:00:15;;;;;;;9.32;4.35;;;18.20;99.90;;;;;;5061212;28;20198;-76
2023/08/04 08:02:46;;;;;;;9.80;4.70;;;18.20;99.90;;;;;;5053347;28;20233;-75
2023/08/04 08:05:17;;;;;;;14.18;5.32;;;18.10;99.90;;;;;;5064534;28;20197;-77
2023/08/04 08:07:49;;;;;;;8.00;4.50;;;18.10;99.90;;;;;;5071291;28;20195;-76
2023/08/04 08:10:22;;;;;;;7.40;4.40;;;18.10;99.90;;;;;;5058155;28;20212;-76
2023/08/04 08:12:53;;;;;;;10.77;5.10;;;18.00;99.90;;;;;;5057808;28;20208;-76
2023/08/04 08:15:24;;;;;;;9.45;4.90;;;18.00;99.90;;;;;;5055729;28;20676;-76
2023/08/04 08:17:55;;;;;;;8.98;4.75;;;18.00;99.90;;;;;;5051115;28;20200;-76
2023/08/04 08:20:26;;;;;;;10.20;4.93;;;17.90;99.90;;;;;;5051154;28;20221;-76
2023/08/04 08:22:58;;;;;;;9.68;4.57;;;17.90;99.90;;;;;;5051239;28;20190;-76
2023/08/04 08:25:31;;;;;;;8.35;4.65;;;17.80;99.90;;;;;;5050966;28;20197;-75
2023/08/04 08:28:02;;;;;;;9.60;4.15;;;17.80;99.90;;;;;;5052554;28;20185;-76
2023/08/04 08:30:32;;;;;;;8.80;4.80;;;17.80;99.90;;;;;;5053233;28;20196;-76
2023/08/04 08:33:03;;;;;;;8.55;4.32;;;17.80;99.90;;;;;;5052766;28;20200;-76
2023/08/04 08:35:34;;;;;;;11.45;5.05;;;17.80;99.90;;;;;;5052951;28;20221;-76
2023/08/04 08:38:05;;;;;;;9.70;5.28;;;17.70;99.90;;;;;;5053240;28;20225;-75
2023/08/04 08:40:37;;;;;;;8.02;4.30;;;17.70;99.90;;;;;;5053129;28;20196;-76
2023/08/04 08:43:08;;;;;;;9.32;5.22;;;17.70;99.90;;;;;;5052605;28;20231;-75
2023/08/04 08:45:40;;;;;;;12.63;5.07;;;17.70;99.90;;;;;;5053303;28;20752;-76
2023/08/04 08:48:12;;;;;;;9.15;4.80;;;17.60;99.90;;;;;;5053079;28;20223;-76
2023/08/04 08:50:44;;;;;;;9.15;4.85;;;17.60;99.90;;;;;;5052927;28;20194;-76
2023/08/04 08:53:17;;;;;;;9.40;4.82;;;17.60;99.90;;;;;;5052860;28;20536;-76
2023/08/04 08:55:49;;;;;;;10.13;4.70;;;17.50;99.90;;;;;;5052654;28;20275;-76
2023/08/04 08:58:21;;;;;;;10.32;4.78;;;17.50;99.90;;;;;;5052661;28;20561;-76
2023/08/04 09:00:52;;;;;;;8.77;4.35;;;17.50;99.90;;;;;;5052627;28;20638;-75
2023/08/04 09:03:23;;;;;;;9.10;4.53;;;17.50;99.90;;;;;;5052452;28;20261;-76
2023/08/04 09:05:54;;;;;;;9.75;4.68;;;17.40;99.90;;;;;;5052908;28;20227;-75
2023/08/04 09:08:25;;;;;;;7.85;4.20;;;17.40;99.90;;;;;;5052573;28;20633;-75
2023/08/04 09:10:59;;;;;;;8.88;4.20;;;17.40;99.90;;;;;;5070495;28;20201;-75
2023/08/04 09:13:30;;;;;;;9.77;4.10;;;17.40;99.90;;;;;;5072758;28;20204;-75
2023/08/04 09:16:02;;;;;;;7.68;4.45;;;17.30;99.90;;;;;;5076100;28;20221;-76
2023/08/04 09:18:36;;;;;;;6.95;4.28;;;17.30;99.90;;;;;;5076527;28;20223;-75
2023/08/04 09:21:14;;;;;;;6.88;3.97;;;17.30;99.90;;;;;;5076757;28;20192;-76
2023/08/04 09:23:51;;;;;;;6.15;4.10;;;17.30;99.90;;;;;;5076541;28;20270;-76
2023/08/04 09:26:24;;;;;;;9.15;4.57;;;17.30;99.90;;;;;;5076494;28;20188;-76
2023/08/04 09:29:06;;;;;;;9.57;5.07;;;17.30;99.90;;;;;;5076824;28;20209;-75
2023/08/04 09:31:41;;;;;;;9.52;5.80;;;17.20;99.90;;;;;;5076650;28;20192;-75
2023/08/04 09:34:12;;;;;;;12.93;6.20;;;17.20;99.90;;;;;;5076261;28;20189;-76
2023/08/04 09:36:45;;;;;;;9.15;6.00;;;17.20;99.90;;;;;;5075992;28;20266;-76
2023/08/04 09:39:17;;;;;;;12.68;6.70;;;17.20;99.90;;;;;;5076208;28;20196;-76
2023/08/04 09:41:50;;;;;;;11.52;6.80;;;17.20;99.90;;;;;;5076117;28;20193;-75
2023/08/04 09:44:21;;;;;;;11.13;6.47;;;17.20;99.90;;;;;;5076246;28;20193;-76
2023/08/04 09:46:52;;;;;;;12.93;7.22;;;17.10;99.90;;;;;;5075946;28;20201;-76
2023/08/04 09:49:24;;;;;;;12.07;6.82;;;17.10;99.90;;;;;;5075890;28;20189;-75
2023/08/04 09:51:58;;;;;;;12.00;7.50;;;17.10;99.90;;;;;;5075681;28;20189;-76
2023/08/04 09:54:29;;;;;;;10.50;7.03;;;17.00;99.90;;;;;;5075669;28;20189;-75
2023/08/04 09:57:02;;;;;;;12.25;7.82;;;17.00;99.90;;;;;;5075583;28;20197;-75
2023/08/04 09:59:33;;;;;;;12.77;7.82;;;17.00;99.90;;;;;;5075880;28;20196;-75
2023/08/04 10:02:04;;;;;;;14.00;8.55;;;17.00;99.90;;;;;;5075633;28;20189;-75
2023/08/04 10:04:37;;;;;;;15.73;9.00;;;16.90;99.90;;;;;;5075574;28;20228;-75
2023/08/04 10:07:08;;;;;;;16.55;9.98;;;16.90;99.90;;;;;;5075671;28;20193;-76
2023/08/04 10:09:40;;;;;;;15.05;9.40;;;16.90;99.90;;;;;;5075354;28;20200;-78
2023/08/04 10:12:14;;;;;;;16.48;10.15;;;16.80;99.90;;;;;;5075590;28;20185;-77
2023/08/04 10:14:45;;;;;;;17.83;10.80;;;16.80;99.90;;;;;;5075223;28;20189;-75
2023/08/04 10:17:16;;;;;;;17.52;10.75;;;16.80;99.90;;;;;;5075264;28;20197;-75
2023/08/04 10:19:46;;;;;;;16.95;11.00;;;16.80;99.90;;;;;;5075454;28;20224;-76
2023/08/04 10:22:17;;;;;;;20.60;11.45;;;16.70;99.90;;;;;;5075234;28;20678;-76
2023/08/04 10:24:48;;;;;;;19.38;11.88;;;16.70;99.90;;;;;;5075006;28;20675;-75
2023/08/04 10:27:22;;;;;;;20.33;12.15;;;16.70;99.90;;;;;;5074087;28;20193;-76
2023/08/04 10:30:11;;;;;;;18.55;11.98;;;16.70;99.90;;;;;;5075106;28;20265;-78
2023/08/04 10:32:43;;;;;;;18.17;11.60;;;16.60;99.90;;;;;;5075292;28;20193;-78
2023/08/04 10:35:20;;;;;;;20.75;11.48;;;16.60;99.90;;;;;;5074967;28;20212;-75
2023/08/04 10:37:53;;;;;;;16.85;10.55;;;16.60;99.90;;;;;;5074789;28;20542;-78
2023/08/04 10:40:34;;;;;;;15.48;9.93;;;16.60;99.90;;;;;;5075198;28;20212;-78
2023/08/04 10:43:08;;;;;;;14.15;9.75;;;16.50;99.90;;;;;;5075162;28;20189;-75
2023/08/04 10:46:01;;;;;;;15.43;9.23;;;16.50;99.90;;;;;;5075101;28;20216;-75
2023/08/04 10:48:38;;;;;;;13.57;8.65;;;16.50;99.90;;;;;;5074857;28;20232;-75
2023/08/04 10:51:09;;;;;;;17.05;9.55;;;16.50;99.90;;;;;;5074784;28;20598;-75
2023/08/04 10:53:40;;;;;;;16.92;8.65;;;16.50;99.90;;;;;;5074663;28;20607;-75
2023/08/04 10:56:11;;;;;;;11.75;8.50;;;16.40;99.90;;;;;;5074767;28;20339;-75
2023/08/04 10:58:44;;;;;;;14.05;8.52;;;16.40;99.90;;;;;;5074560;28;20690;-75
2023/08/04 11:01:19;;;;;;;12.10;8.10;;;16.40;99.90;;;;;;5074442;28;20193;-75
2023/08/04 11:03:53;;;;;;;11.35;7.65;;;16.30;99.90;;;;;;5074738;28;20234;-77
2023/08/04 11:06:24;;;;;;;11.90;7.32;;;16.30;99.90;;;;;;5074376;28;20185;-76
2023/08/04 11:08:55;;;;;;;12.85;7.53;;;16.30;99.90;;;;;;5074287;28;20189;-75
2023/08/04 11:11:27;;;;;;;12.18;8.05;;;16.20;99.90;;;;;;5057191;28;20570;-75
2023/08/04 11:14:03;;;;;;;13.80;8.20;;;16.10;99.90;;;;;;5054407;28;20194;-75
2023/08/04 11:16:35;;;;;;;14.68;8.18;;;16.00;99.90;;;;;;5054150;28;20282;-75
2023/08/04 11:19:09;;;;;;;13.68;7.88;;;15.90;99.90;;;;;;5054292;28;20217;-75
2023/08/04 11:21:39;;;;;;;11.45;7.30;;;15.90;99.90;;;;;;5054101;28;20204;-74
2023/08/04 11:24:13;;;;;;;11.02;6.75;;;15.80;99.90;;;;;;5053969;28;20193;-74
2023/08/04 11:26:44;;;;;;;9.50;6.57;;;15.70;99.90;;;;;;5053946;28;20650;-74
2023/08/04 11:29:18;;;;;;;11.65;7.38;;;15.70;99.90;;;;;;5054162;28;20535;-74
2023/08/04 11:31:49;;;;;;;12.00;6.65;;;15.70;99.90;;;;;;5054025;28;20186;-74
2023/08/04 11:34:20;;;;;;;13.10;7.63;;;15.70;99.90;;;;;;5053987;28;20239;-74
2023/08/04 11:36:51;;;;;;;11.82;7.90;;;15.60;99.90;;;;;;5053599;28;20221;-74
2023/08/04 11:39:22;;;;;;;10.77;6.72;;;15.60;99.90;;;;;;5053824;28;20189;-75
2023/08/04 11:41:52;;;;;;;12.45;6.68;;;15.50;99.90;;;;;;5053744;28;20255;-74
2023/08/04 11:44:26;;;;;;;10.85;6.38;;;15.50;99.90;;;;;;5053800;28;20556;-74
2023/08/04 11:46:57;;;;;;;9.48;6.22;;;15.40;99.90;;;;;;5053544;28;20200;-74
2023/08/04 11:49:27;;;;;;;10.77;6.28;;;15.40;99.90;;;;;;5053559;28;20626;-74
2023/08/04 11:51:58;;;;;;;11.55;6.75;;;15.30;99.90;;;;;;5053556;28;20205;-75
2023/08/04 11:54:29;;;;;;;12.15;6.57;;;15.30;99.90;;;;;;5053493;28;20189;-74
2023/08/04 11:57:01;;;;;;;11.50;6.65;;;15.30;99.90;;;;;;5053955;28;20573;-74
2023/08/04 11:59:33;;;;;;;11.68;6.70;;;15.30;99.90;;;;;;5053463;28;20204;-74
2023/08/04 12:02:11;;;;;;;11.77;7.40;;;15.30;99.90;;;;;;5053335;28;20189;-74
2023/08/04 12:04:41;;;;;;;9.20;6.88;;;15.30;99.90;;;;;;5053165;28;20301;-74
2023/08/04 12:07:12;;;;;;;11.07;7.03;;;15.40;99.90;;;;;;5053267;28;20197;-74
2023/08/04 12:09:48;;;;;;;12.82;7.53;;;15.40;99.90;;;;;;5053304;28;20664;-74
2023/08/04 12:12:19;;;;;;;11.75;7.53;;;15.30;99.90;;;;;;5053457;28;20208;-75
2023/08/04 12:15:02;;;;;;;10.15;7.20;;;15.30;99.90;;;;;;5053354;28;20186;-75
2023/08/04 12:17:40;;;;;;;10.50;6.90;;;15.30;99.90;;;;;;5053076;28;20335;-74
2023/08/04 12:20:12;;;;;;;10.50;6.95;;;15.20;99.90;;;;;;5052969;28;20251;-74
2023/08/04 12:22:44;;;;;;;12.43;8.10;;;15.20;99.90;;;;;;5053016;28;20190;-74
2023/08/04 12:25:15;;;;;;;12.25;7.82;;;15.10;99.90;;;;;;5052904;28;20193;-75
2023/08/04 12:27:46;;;;;;;10.85;7.38;;;15.10;99.90;;;;;;5053157;28;20198;-74
2023/08/04 12:30:19;;;;;;;12.95;8.20;;;15.10;99.90;;;;;;5053093;28;20194;-74
2023/08/04 12:32:49;;;;;;;13.63;8.10;;;15.10;99.90;;;;;;5053094;28;20613;-74
2023/08/04 12:35:20;;;;;;;12.02;8.02;;;15.00;99.90;;;;;;5052769;28;20585;-75
2023/08/04 12:37:51;;;;;;;12.43;8.60;;;15.00;99.90;;;;;;5052805;28;20201;-75
2023/08/04 12:40:22;;;;;;;15.05;9.27;;;15.00;99.90;;;;;;5053053;28;20634;-74
2023/08/04 12:42:53;;;;;;;16.23;9.70;;;15.00;99.90;;;;;;5052927;28;20190;-74
2023/08/04 12:45:25;;;;;;;16.00;9.52;;;15.00;99.90;;;;;;5052921;28;20285;-74
2023/08/04 12:47:56;;;;;;;14.90;10.20;;;15.00;99.90;;;;;;5053018;28;20200;-75
2023/08/04 12:50:27;;;;;;;15.45;9.63;;;15.00;99.90;;;;;;5055473;28;20195;-75
2023/08/04 12:52:58;;;;;;;13.27;9.05;;;14.90;99.90;;;;;;5057028;28;20189;-74
2023/08/04 12:55:28;;;;;;;15.20;9.75;;;14.90;99.90;;;;;;5056861;28;20268;-74
2023/08/04 12:57:59;;;;;;;13.95;9.15;;;14.90;99.90;;;;;;5056925;28;20676;-75
2023/08/04 13:00:32;;;;;;;14.35;9.25;;;14.90;99.90;;;;;;5056943;28;20648;-75
2023/08/04 13:03:02;;;;;;;16.40;8.88;;;14.90;99.90;;;;;;5056590;28;20255;-74
2023/08/04 13:05:33;;;;;;;16.23;10.23;;;14.90;99.90;;;;;;5056766;28;20193;-74